Main page
METAR-TAF:

METAR-TAF

Airports :

Valencia Airport

Valencia, Spain

latitude: 39-30N, longitude: 000-28W, elevation: 69 m

Current weather observation

The report was made 34 minutes ago, at 23:00 UTC
Wind 3 kt from the West/Northwest
Temperature 25°C
Humidity 74%
Pressure 1018 hPa
Visibility 10 km or more
no clouds below 1500 m and no cumulonimbus

METAR: LEVC 052300Z 29003KT CAVOK 25/20 Q1018 NOSIG

Time: 01:34 (23:34 UTC)

Forecast

The report was made 6 hours and 34 minutes ago, at 17:00 UTC
Forecast valid from 05 at 18 UTC to 06 at 18 UTC
Wind 10 kt from the East/Southeast
Visibility 10 km or more
Few clouds at a height of 2500 ft
Becoming
from 05 at 18 UTC to 05 at 20 UTC
Wind 3 kt from variable directions
Becoming
from 06 at 10 UTC to 06 at 12 UTC
Wind 10 kt from the East

TAF: LEVC 051700Z 0518/0618 12010KT 9999 FEW025 TX34/0612Z TN20/0606Z BECMG 0518/0520 VRB03KT BECMG 0610/0612 10010KT

Weather observations and forecasts of more than 4000 airports (METAR and TAF reports).

The available stations are represented by yellow and red dots on the map.

Hover mouse over dot to see the name of the station.

Then click to see weather observations and forecasts.

To change the map : click on the green buttons with a black cross to zoom in, on the green button with a dash to zoom out, or on the green arrows for adjacent maps.


METAR-TAF: